Time;durP1;ratioP1;P1;durP2;ratioP2;P2;SDS_P1;SDS_P2;PMS_P1;PMS_P2;Temp;Humidity;BMP_temperature;BMP_pressure;BME280_temperature;BME280_humidity;BME280_pressure;Samples;Min_cycle;Max_cycle;Signal;HPM_P1;HPM_P2
2021/09/25 00:01:09;;;;;;;1.23;0.53;;;14.50;99.90;;;;;;5072564;28;20186;-82
2021/09/25 00:03:35;;;;;;;0.10;0.10;;;14.40;99.90;;;;;;5076473;28;20194;-82
2021/09/25 00:06:01;;;;;;;0.40;0.33;;;14.40;99.90;;;;;;5079264;28;20181;-82
2021/09/25 00:08:26;;;;;;;0.23;0.23;;;14.40;99.90;;;;;;5087425;28;20216;-82
2021/09/25 00:10:52;;;;;;;0.10;0.10;;;14.30;99.90;;;;;;5084516;28;20186;-83
2021/09/25 00:13:18;;;;;;;0.30;0.30;;;14.20;99.90;;;;;;5084343;28;20567;-82
2021/09/25 00:15:43;;;;;;;0.30;0.30;;;14.20;99.90;;;;;;5088545;28;20674;-82
2021/09/25 00:18:09;;;;;;;1.80;0.10;;;14.20;99.90;;;;;;5091676;28;20178;-82
2021/09/25 00:20:36;;;;;;;1.60;0.43;;;14.20;99.90;;;;;;5084381;28;20183;-83
2021/09/25 00:23:02;;;;;;;0.30;0.30;;;14.20;99.90;;;;;;5084740;28;20194;-83
2021/09/25 00:25:28;;;;;;;0.00;0.00;;;14.20;99.90;;;;;;5074281;28;20198;-82
2021/09/25 00:27:53;;;;;;;0.20;0.20;;;14.20;99.90;;;;;;5080037;28;20251;-82
2021/09/25 00:30:19;;;;;;;0.40;0.27;;;14.20;99.90;;;;;;5065262;28;20606;-82
2021/09/25 00:32:45;;;;;;;0.40;0.40;;;14.20;99.90;;;;;;5077993;28;20206;-82
2021/09/25 00:35:12;;;;;;;0.20;0.20;;;14.30;99.90;;;;;;5092692;28;21000;-82
2021/09/25 00:37:38;;;;;;;0.20;0.20;;;14.20;99.90;;;;;;5092181;28;20229;-82
2021/09/25 00:40:06;;;;;;;0.17;0.17;;;14.20;99.90;;;;;;5082597;28;20181;-80
2021/09/25 00:42:32;;;;;;;0.37;0.30;;;14.20;99.90;;;;;;5084936;28;20555;-80
2021/09/25 00:44:57;;;;;;;0.20;0.20;;;14.10;99.90;;;;;;5078348;28;20187;-79
2021/09/25 00:47:23;;;;;;;0.13;0.13;;;14.10;99.90;;;;;;5077582;28;20182;-80
2021/09/25 00:49:49;;;;;;;0.07;0.07;;;14.10;99.90;;;;;;5086982;28;20186;-80
2021/09/25 00:52:14;;;;;;;0.10;0.10;;;14.10;99.90;;;;;;5072755;28;20216;-80
2021/09/25 00:54:40;;;;;;;0.50;0.33;;;14.10;99.90;;;;;;5097529;28;20232;-79
2021/09/25 00:57:06;;;;;;;0.50;0.40;;;14.10;99.90;;;;;;5089312;28;20217;-80
2021/09/25 00:59:33;;;;;;;0.10;0.10;;;14.00;99.90;;;;;;5082598;28;20186;-80
2021/09/25 01:01:59;;;;;;;0.20;0.20;;;13.90;99.90;;;;;;5064419;28;20237;-79
2021/09/25 01:04:24;;;;;;;0.13;0.13;;;13.80;99.90;;;;;;5082305;28;20219;-80
2021/09/25 01:06:50;;;;;;;0.13;0.13;;;13.70;99.90;;;;;;5087780;28;20570;-80
2021/09/25 01:09:16;;;;;;;0.47;0.23;;;13.80;99.90;;;;;;5078132;28;20201;-80
2021/09/25 01:11:42;;;;;;;0.47;0.27;;;13.90;99.90;;;;;;5073362;28;20201;-80
2021/09/25 01:14:09;;;;;;;0.30;0.30;;;13.90;99.90;;;;;;5085129;28;20204;-80
2021/09/25 01:16:36;;;;;;;0.10;0.10;;;13.80;99.90;;;;;;5079579;28;20195;-80
2021/09/25 01:19:01;;;;;;;0.10;0.10;;;13.80;99.90;;;;;;5075174;28;20182;-79
2021/09/25 01:21:27;;;;;;;0.10;0.10;;;13.70;99.90;;;;;;5061767;28;20690;-80
2021/09/25 01:23:53;;;;;;;0.60;0.50;;;13.70;99.90;;;;;;5082410;28;20188;-80
2021/09/25 01:26:20;;;;;;;0.33;0.20;;;13.60;99.90;;;;;;5073255;28;20679;-80
2021/09/25 01:28:47;;;;;;;0.17;0.17;;;13.50;99.90;;;;;;5075363;28;20200;-80
2021/09/25 01:31:13;;;;;;;0.30;0.30;;;13.50;99.90;;;;;;5086365;28;20239;-79
2021/09/25 01:33:42;;;;;;;0.13;0.13;;;13.40;99.90;;;;;;5073210;28;20276;-79
2021/09/25 01:36:12;;;;;;;0.60;0.43;;;13.20;99.90;;;;;;5078015;28;20634;-80
2021/09/25 01:38:38;;;;;;;0.10;0.10;;;13.00;99.90;;;;;;5086563;28;20591;-79
2021/09/25 01:41:04;;;;;;;0.23;0.20;;;13.10;99.90;;;;;;5087456;28;20175;-80
2021/09/25 01:43:31;;;;;;;0.30;0.13;;;13.20;99.90;;;;;;5090656;28;20206;-79
2021/09/25 01:45:57;;;;;;;0.00;0.00;;;13.20;99.90;;;;;;5085316;28;20178;-79
2021/09/25 01:48:23;;;;;;;0.10;0.10;;;13.30;99.90;;;;;;5077693;28;20554;-80
2021/09/25 01:50:50;;;;;;;0.20;0.20;;;13.20;99.90;;;;;;5088867;28;20186;-80
2021/09/25 01:53:17;;;;;;;0.10;0.10;;;13.00;99.90;;;;;;5076192;28;20250;-79
2021/09/25 01:55:42;;;;;;;0.00;0.00;;;12.80;99.90;;;;;;5094367;28;20237;-80
2021/09/25 01:58:08;;;;;;;0.20;0.20;;;12.70;99.90;;;;;;5079715;28;20181;-79
2021/09/25 02:00:34;;;;;;;1.20;0.50;;;12.70;99.90;;;;;;5075469;28;20186;-80
2021/09/25 02:03:01;;;;;;;0.83;0.30;;;12.80;99.90;;;;;;5085690;28;20225;-83
2021/09/25 02:05:27;;;;;;;0.30;0.30;;;12.90;99.90;;;;;;5085768;28;20542;-82
2021/09/25 02:07:53;;;;;;;0.10;0.10;;;13.00;99.90;;;;;;5075430;28;20267;-82
2021/09/25 02:10:18;;;;;;;0.10;0.10;;;13.00;99.90;;;;;;5088335;28;20216;-82
2021/09/25 02:12:45;;;;;;;0.57;0.40;;;12.90;99.90;;;;;;5084013;28;20307;-82
2021/09/25 02:15:12;;;;;;;0.10;0.10;;;12.70;99.90;;;;;;5090719;28;20239;-82
2021/09/25 02:17:37;;;;;;;0.10;0.10;;;12.60;99.90;;;;;;5081422;28;20192;-83
2021/09/25 02:20:08;;;;;;;0.10;0.10;;;12.60;99.90;;;;;;5086857;28;20176;-82
2021/09/25 02:22:35;;;;;;;0.03;0.03;;;12.50;99.90;;;;;;5073746;28;20245;-82
2021/09/25 02:25:00;;;;;;;0.20;0.20;;;12.50;99.90;;;;;;5083151;28;20557;-82
2021/09/25 02:27:26;;;;;;;0.27;0.27;;;12.60;99.90;;;;;;5091693;28;20200;-82
2021/09/25 02:29:51;;;;;;;4.43;0.40;;;12.70;99.90;;;;;;5090181;28;20282;-82
2021/09/25 02:32:17;;;;;;;0.20;0.20;;;12.80;99.90;;;;;;5085934;28;20625;-82
2021/09/25 02:34:43;;;;;;;0.20;0.20;;;12.80;99.90;;;;;;5089911;28;20286;-82
2021/09/25 02:37:08;;;;;;;0.10;0.10;;;12.80;99.90;;;;;;5085869;28;20230;-82
2021/09/25 02:39:35;;;;;;;0.10;0.10;;;12.90;99.90;;;;;;5076395;28;20182;-83
2021/09/25 02:42:01;;;;;;;0.20;0.20;;;12.90;99.90;;;;;;5087491;28;20216;-83
2021/09/25 02:44:27;;;;;;;0.00;0.00;;;12.90;99.90;;;;;;5091031;28;20189;-82
2021/09/25 02:46:54;;;;;;;0.40;0.10;;;13.00;99.90;;;;;;5082871;28;20248;-82
2021/09/25 02:49:20;;;;;;;0.20;0.20;;;13.00;99.90;;;;;;5086074;28;20677;-82
2021/09/25 02:51:46;;;;;;;0.20;0.20;;;13.10;99.90;;;;;;5081280;28;20239;-82
2021/09/25 02:54:12;;;;;;;0.47;0.30;;;13.20;99.90;;;;;;5086588;28;20197;-83
2021/09/25 02:56:38;;;;;;;0.30;0.10;;;13.20;99.90;;;;;;5094155;28;20544;-82
2021/09/25 02:59:04;;;;;;;0.10;0.10;;;13.20;99.90;;;;;;5081854;28;20661;-82
2021/09/25 03:01:30;;;;;;;0.00;0.00;;;13.20;99.90;;;;;;5078979;28;20201;-82
2021/09/25 03:03:56;;;;;;;0.20;0.20;;;13.20;99.90;;;;;;5080526;28;20176;-82
2021/09/25 03:06:26;;;;;;;0.40;0.40;;;13.20;99.90;;;;;;5092264;28;20181;-82
2021/09/25 03:08:52;;;;;;;0.20;0.20;;;13.10;99.90;;;;;;5085319;28;20389;-81
2021/09/25 03:11:18;;;;;;;0.30;0.20;;;12.90;99.90;;;;;;5065624;28;20250;-82
2021/09/25 03:13:45;;;;;;;0.10;0.10;;;12.70;99.90;;;;;;5064279;28;20272;-82
2021/09/25 03:16:11;;;;;;;0.73;0.60;;;12.70;99.90;;;;;;5070835;28;20193;-82
2021/09/25 03:18:37;;;;;;;0.87;0.63;;;12.60;99.90;;;;;;5073413;28;20191;-82
2021/09/25 03:21:03;;;;;;;0.43;0.37;;;12.70;99.90;;;;;;5078998;28;20207;-82
2021/09/25 03:23:28;;;;;;;0.00;0.00;;;12.80;99.90;;;;;;5066747;28;20213;-82
2021/09/25 03:25:54;;;;;;;0.20;0.20;;;12.90;99.90;;;;;;5083365;28;20183;-82
2021/09/25 03:28:20;;;;;;;0.40;0.40;;;13.00;99.90;;;;;;5082895;28;20651;-83
2021/09/25 03:30:45;;;;;;;0.20;0.20;;;13.00;99.90;;;;;;5093079;28;20173;-83
2021/09/25 03:33:11;;;;;;;0.20;0.20;;;13.00;99.90;;;;;;5086398;28;20288;-83
2021/09/25 03:35:37;;;;;;;0.10;0.10;;;13.00;99.90;;;;;;5084755;28;20224;-82
2021/09/25 03:38:02;;;;;;;0.17;0.17;;;13.00;99.90;;;;;;5091338;28;20733;-82
2021/09/25 03:40:29;;;;;;;0.30;0.30;;;12.90;99.90;;;;;;5080793;28;20185;-82
2021/09/25 03:42:55;;;;;;;0.20;0.20;;;12.90;99.90;;;;;;5086751;28;20679;-83
2021/09/25 03:45:21;;;;;;;0.23;0.23;;;12.90;99.90;;;;;;5080494;28;20184;-82
2021/09/25 03:47:47;;;;;;;0.70;0.70;;;12.80;99.90;;;;;;5084917;28;20193;-82
2021/09/25 03:50:14;;;;;;;0.10;0.10;;;12.80;99.90;;;;;;5088463;28;20185;-82
2021/09/25 03:52:40;;;;;;;0.30;0.30;;;12.60;99.90;;;;;;5085001;28;20212;-82
2021/09/25 03:55:07;;;;;;;0.20;0.20;;;12.20;99.90;;;;;;5086507;28;20212;-83
2021/09/25 03:57:33;;;;;;;0.17;0.17;;;12.10;99.90;;;;;;5082765;28;20239;-82
2021/09/25 03:59:58;;;;;;;0.10;0.10;;;12.00;99.90;;;;;;5071011;28;20173;-82
2021/09/25 04:02:24;;;;;;;0.03;0.03;;;11.90;99.90;;;;;;5089480;28;20578;-82
2021/09/25 04:04:50;;;;;;;0.20;0.17;;;11.90;99.90;;;;;;5082134;28;20961;-83
2021/09/25 04:07:15;;;;;;;0.50;0.17;;;12.00;99.90;;;;;;5080730;28;20185;-82
2021/09/25 04:09:41;;;;;;;0.20;0.20;;;12.10;99.90;;;;;;5075010;28;20558;-82
2021/09/25 04:12:06;;;;;;;0.17;0.17;;;12.20;99.90;;;;;;5080310;28;20661;-82
2021/09/25 04:14:32;;;;;;;0.10;0.03;;;12.30;99.90;;;;;;5083880;28;20202;-82
2021/09/25 04:16:58;;;;;;;0.00;0.00;;;12.20;99.90;;;;;;5070082;28;20604;-82
2021/09/25 04:19:23;;;;;;;0.03;0.03;;;12.00;99.90;;;;;;5073500;28;20546;-82
2021/09/25 04:21:50;;;;;;;0.10;0.10;;;12.10;99.90;;;;;;5073770;28;20250;-82
2021/09/25 04:24:15;;;;;;;0.10;0.10;;;12.20;99.90;;;;;;5064086;28;20185;-83
2021/09/25 04:26:41;;;;;;;0.40;0.40;;;12.30;99.90;;;;;;5074311;28;20199;-82
2021/09/25 04:29:06;;;;;;;0.10;0.10;;;12.20;99.90;;;;;;5077860;28;20211;-83
2021/09/25 04:31:35;;;;;;;0.10;0.10;;;12.10;99.90;;;;;;5072103;28;20209;-82
2021/09/25 04:34:03;;;;;;;0.10;0.10;;;11.80;99.90;;;;;;5076926;28;20197;-83
2021/09/25 04:36:31;;;;;;;0.10;0.10;;;11.80;99.90;;;;;;5066648;28;20196;-83
2021/09/25 04:38:57;;;;;;;0.13;0.13;;;11.80;99.90;;;;;;5063022;28;20245;-82
2021/09/25 04:41:22;;;;;;;0.10;0.10;;;11.90;99.90;;;;;;5067380;28;20195;-82
2021/09/25 04:43:48;;;;;;;1.60;0.50;;;12.10;99.90;;;;;;5074102;28;20210;-83
2021/09/25 04:46:14;;;;;;;0.20;0.20;;;12.10;99.90;;;;;;5069007;28;20184;-83
2021/09/25 04:48:39;;;;;;;0.10;0.10;;;12.10;99.90;;;;;;5071224;28;20973;-83
2021/09/25 04:51:05;;;;;;;0.47;0.40;;;12.20;99.90;;;;;;5069698;28;20193;-83
2021/09/25 04:53:30;;;;;;;0.53;0.20;;;12.30;99.90;;;;;;5065012;28;20286;-81
2021/09/25 04:55:59;;;;;;;0.13;0.13;;;12.30;99.90;;;;;;5076211;28;20272;-83
2021/09/25 04:58:29;;;;;;;0.10;0.10;;;12.40;99.90;;;;;;5076392;28;20275;-82
2021/09/25 05:00:56;;;;;;;0.20;0.20;;;12.40;99.90;;;;;;5077365;28;20589;-82
2021/09/25 05:03:22;;;;;;;0.20;0.20;;;12.40;99.90;;;;;;5089270;28;20209;-82
2021/09/25 05:05:48;;;;;;;0.10;0.10;;;12.50;99.90;;;;;;5090911;28;20208;-83
2021/09/25 05:08:14;;;;;;;0.50;0.50;;;12.50;99.90;;;;;;5087049;28;20641;-83
2021/09/25 05:10:39;;;;;;;0.20;0.20;;;12.50;99.90;;;;;;5080446;28;20192;-83
2021/09/25 05:13:05;;;;;;;0.10;0.10;;;12.50;99.90;;;;;;5080085;28;20207;-83
2021/09/25 05:15:31;;;;;;;0.20;0.20;;;12.30;99.90;;;;;;5081606;28;20200;-82
2021/09/25 05:17:56;;;;;;;2.57;0.40;;;12.20;99.90;;;;;;5090196;28;20188;-82
2021/09/25 05:20:22;;;;;;;0.57;0.30;;;12.30;99.90;;;;;;5073455;28;20177;-81
2021/09/25 05:22:47;;;;;;;0.10;0.10;;;12.10;99.90;;;;;;5078231;28;20205;-81
2021/09/25 05:25:13;;;;;;;0.43;0.43;;;11.90;99.90;;;;;;5089726;28;20189;-81
2021/09/25 05:27:40;;;;;;;0.33;0.33;;;12.00;99.90;;;;;;5084592;28;20234;-82
2021/09/25 05:30:06;;;;;;;0.10;0.10;;;12.10;99.90;;;;;;5081535;28;20195;-81
2021/09/25 05:32:33;;;;;;;0.10;0.10;;;12.10;99.90;;;;;;5083590;28;20200;-82
2021/09/25 05:34:58;;;;;;;0.30;0.30;;;12.20;99.90;;;;;;5087443;28;20642;-82
2021/09/25 05:37:24;;;;;;;0.20;0.20;;;12.30;99.90;;;;;;5087492;28;20215;-82
2021/09/25 05:39:54;;;;;;;0.03;0.03;;;12.40;99.90;;;;;;5088542;28;20204;-82
2021/09/25 05:42:22;;;;;;;0.10;0.10;;;12.50;99.90;;;;;;5074793;28;20205;-82
2021/09/25 05:44:47;;;;;;;0.07;0.07;;;12.60;99.90;;;;;;5073805;28;20222;-82
2021/09/25 05:47:13;;;;;;;0.10;0.10;;;12.50;99.90;;;;;;5077734;28;20188;-83
2021/09/25 05:49:39;;;;;;;0.20;0.20;;;12.60;99.90;;;;;;5086046;28;20203;-83
2021/09/25 05:52:06;;;;;;;0.10;0.10;;;12.70;99.90;;;;;;5085612;28;20721;-83
2021/09/25 05:54:32;;;;;;;0.10;0.10;;;12.80;99.90;;;;;;5082148;28;20207;-84
2021/09/25 05:56:58;;;;;;;0.10;0.10;;;12.80;99.90;;;;;;5084452;28;20182;-83
2021/09/25 05:59:23;;;;;;;0.20;0.20;;;12.90;99.90;;;;;;5084219;28;20303;-83
2021/09/25 06:01:49;;;;;;;0.10;0.10;;;12.90;99.90;;;;;;5083263;28;20200;-83
2021/09/25 06:04:15;;;;;;;0.10;0.10;;;13.00;99.90;;;;;;5086506;28;20189;-82
2021/09/25 06:06:41;;;;;;;0.10;0.10;;;13.20;99.90;;;;;;5073923;28;20655;-82
2021/09/25 06:09:06;;;;;;;0.10;0.10;;;13.30;99.90;;;;;;5092398;28;20181;-81
2021/09/25 06:11:32;;;;;;;0.00;0.00;;;13.40;99.90;;;;;;5085133;28;20231;-82
2021/09/25 06:13:57;;;;;;;0.20;0.20;;;13.50;99.90;;;;;;5078062;28;20254;-82
2021/09/25 06:16:23;;;;;;;0.13;0.13;;;13.50;99.90;;;;;;5082878;28;20264;-82
2021/09/25 06:18:48;;;;;;;0.20;0.10;;;13.50;99.90;;;;;;5074667;28;20185;-82
2021/09/25 06:21:14;;;;;;;0.73;0.43;;;13.60;99.90;;;;;;5083430;28;20183;-84
2021/09/25 06:23:40;;;;;;;1.20;1.10;;;13.60;99.90;;;;;;5083727;28;20186;-83
2021/09/25 06:26:08;;;;;;;0.27;0.27;;;13.70;99.90;;;;;;5085917;28;20555;-84
2021/09/25 06:28:34;;;;;;;0.10;0.10;;;13.80;99.90;;;;;;5069621;28;20587;-85
2021/09/25 06:31:00;;;;;;;0.20;0.20;;;13.80;99.90;;;;;;5073507;28;20190;-84
2021/09/25 06:33:25;;;;;;;0.10;0.10;;;13.80;99.90;;;;;;5085806;28;20209;-82
2021/09/25 06:35:53;;;;;;;1.33;0.63;;;13.80;99.90;;;;;;5078859;28;20206;-84
2021/09/25 06:38:19;;;;;;;0.20;0.20;;;13.90;99.90;;;;;;5085565;28;20174;-84
2021/09/25 06:40:45;;;;;;;0.33;0.33;;;13.90;99.90;;;;;;5086522;28;20241;-84
2021/09/25 06:43:10;;;;;;;0.10;0.10;;;13.90;99.90;;;;;;5087019;28;20643;-85
2021/09/25 06:45:38;;;;;;;0.27;0.27;;;13.90;99.90;;;;;;5104555;28;20193;-83
2021/09/25 06:48:05;;;;;;;0.20;0.20;;;14.00;99.90;;;;;;5098104;28;20185;-84
2021/09/25 06:50:31;;;;;;;0.10;0.10;;;14.10;99.90;;;;;;5085831;28;20255;-84
2021/09/25 06:52:57;;;;;;;0.10;0.10;;;14.30;99.90;;;;;;5099214;28;20240;-83
2021/09/25 06:55:22;;;;;;;0.43;0.43;;;14.40;99.90;;;;;;5099577;28;20258;-83
2021/09/25 06:57:48;;;;;;;0.10;0.10;;;14.60;99.90;;;;;;5099048;28;20635;-84
2021/09/25 07:00:14;;;;;;;0.27;0.27;;;14.70;99.90;;;;;;5090550;28;20231;-84
2021/09/25 07:02:40;;;;;;;0.20;0.20;;;14.90;99.90;;;;;;5079273;28;20198;-84
2021/09/25 07:05:07;;;;;;;0.10;0.10;;;14.90;99.90;;;;;;5091471;28;20185;-84
2021/09/25 07:07:33;;;;;;;0.07;0.07;;;15.10;99.90;;;;;;5084883;28;20277;-84
2021/09/25 07:09:58;;;;;;;0.10;0.10;;;15.30;99.90;;;;;;5065853;28;20271;-83
2021/09/25 07:12:25;;;;;;;0.20;0.20;;;15.50;99.90;;;;;;5083489;28;20211;-84
2021/09/25 07:14:51;;;;;;;0.27;0.27;;;15.60;99.90;;;;;;5084176;28;20675;-83
2021/09/25 07:17:17;;;;;;;0.20;0.20;;;15.80;99.90;;;;;;5088213;28;20538;-84
2021/09/25 07:19:42;;;;;;;0.30;0.20;;;15.90;99.90;;;;;;5094281;28;20241;-84
2021/09/25 07:22:08;;;;;;;0.27;0.27;;;16.10;99.90;;;;;;5074942;28;20255;-84
2021/09/25 07:24:35;;;;;;;0.50;0.40;;;15.80;99.90;;;;;;5076074;28;20270;-84
2021/09/25 07:27:01;;;;;;;0.50;0.50;;;15.70;99.90;;;;;;5080365;28;20202;-84
2021/09/25 07:29:26;;;;;;;0.23;0.23;;;15.80;99.90;;;;;;5080382;28;20188;-84
2021/09/25 07:31:52;;;;;;;0.10;0.10;;;16.00;99.90;;;;;;5066812;28;20204;-84
2021/09/25 07:34:18;;;;;;;0.30;0.30;;;16.20;99.90;;;;;;5067014;28;20208;-82
2021/09/25 07:36:43;;;;;;;0.17;0.17;;;16.60;99.90;;;;;;5075634;28;20547;-83
2021/09/25 07:39:09;;;;;;;0.23;0.23;;;16.80;99.90;;;;;;5078809;28;20549;-83
2021/09/25 07:41:36;;;;;;;0.33;0.33;;;16.90;99.90;;;;;;5072532;28;20766;-83
2021/09/25 07:44:03;;;;;;;0.73;0.40;;;17.10;99.90;;;;;;5080326;28;20196;-83
2021/09/25 07:46:29;;;;;;;0.33;0.33;;;17.30;99.90;;;;;;5064071;28;20193;-82
2021/09/25 07:48:54;;;;;;;0.27;0.20;;;17.50;99.90;;;;;;5088933;28;20226;-85
2021/09/25 07:51:20;;;;;;;0.17;0.17;;;17.60;99.90;;;;;;5079003;28;20190;-85
2021/09/25 07:53:46;;;;;;;0.77;0.40;;;17.80;99.90;;;;;;5062091;28;20180;-84
2021/09/25 07:56:12;;;;;;;0.93;0.43;;;17.90;99.90;;;;;;5090521;28;20181;-84
2021/09/25 07:58:37;;;;;;;0.27;0.27;;;18.00;99.90;;;;;;5062493;28;20323;-84
2021/09/25 08:01:04;;;;;;;0.27;0.27;;;18.10;99.90;;;;;;5053731;28;20184;-85
2021/09/25 08:03:30;;;;;;;0.20;0.10;;;18.30;99.90;;;;;;5061072;28;20201;-84
2021/09/25 08:05:56;;;;;;;0.20;0.20;;;18.40;99.90;;;;;;5053062;28;20185;-84
2021/09/25 08:08:22;;;;;;;0.80;0.70;;;18.60;99.90;;;;;;5055758;28;20537;-84
2021/09/25 08:10:47;;;;;;;0.73;0.30;;;18.60;99.90;;;;;;5077718;28;20188;-85
2021/09/25 08:13:13;;;;;;;0.50;0.40;;;18.80;99.90;;;;;;5074202;28;20699;-83
2021/09/25 08:15:40;;;;;;;0.40;0.40;;;18.90;99.90;;;;;;5084951;28;20212;-83
2021/09/25 08:18:06;;;;;;;0.40;0.40;;;19.10;99.90;;;;;;5075757;28;20242;-84
2021/09/25 08:20:32;;;;;;;0.27;0.20;;;19.00;99.90;;;;;;5076386;28;20181;-84
2021/09/25 08:22:58;;;;;;;1.10;0.60;;;19.10;99.90;;;;;;5071369;28;20311;-83
2021/09/25 08:25:24;;;;;;;0.57;0.57;;;19.40;99.90;;;;;;5066081;28;20228;-83
2021/09/25 08:27:50;;;;;;;0.67;0.50;;;19.10;99.90;;;;;;5068265;28;20197;-83
2021/09/25 08:30:16;;;;;;;0.20;0.20;;;19.20;99.90;;;;;;5069440;28;20185;-83
2021/09/25 08:32:42;;;;;;;2.20;0.60;;;19.30;99.90;;;;;;5069505;28;20203;-83
2021/09/25 08:35:08;;;;;;;0.90;0.90;;;19.40;99.90;;;;;;5074145;28;20266;-83
2021/09/25 08:37:35;;;;;;;2.90;0.80;;;19.00;99.90;;;;;;5066390;28;20229;-82
2021/09/25 08:40:03;;;;;;;0.43;0.43;;;19.40;99.90;;;;;;5076594;28;20197;-83
2021/09/25 08:42:28;;;;;;;0.47;0.47;;;19.30;99.90;;;;;;5087733;28;20201;-82
2021/09/25 08:44:54;;;;;;;0.73;0.73;;;19.60;99.90;;;;;;5090959;28;20349;-82
2021/09/25 08:47:21;;;;;;;0.80;0.80;;;19.80;99.90;;;;;;5075449;28;20233;-83
2021/09/25 08:49:47;;;;;;;0.70;0.70;;;19.20;99.90;;;;;;5073014;28;20259;-83
2021/09/25 08:52:13;;;;;;;2.47;1.10;;;19.60;99.90;;;;;;5075060;28;20285;-84
2021/09/25 08:54:39;;;;;;;0.70;0.70;;;19.70;99.90;;;;;;5065688;28;20701;-83
2021/09/25 08:57:05;;;;;;;2.10;0.60;;;19.60;99.90;;;;;;5071161;28;20177;-83
2021/09/25 08:59:31;;;;;;;0.63;0.63;;;19.90;99.90;;;;;;5071020;28;20178;-83
2021/09/25 09:02:12;;;;;;;1.23;0.57;;;20.20;99.90;;;;;;5066620;28;20772;-83
2021/09/25 09:04:42;;;;;;;0.50;0.50;;;20.00;99.90;;;;;;5077619;28;20194;-82
2021/09/25 09:07:13;;;;;;;0.50;0.50;;;19.90;99.90;;;;;;5079209;28;20185;-84
2021/09/25 09:09:43;;;;;;;0.47;0.47;;;20.10;99.90;;;;;;5066476;28;20179;-84
2021/09/25 09:12:10;;;;;;;0.80;0.80;;;20.30;99.90;;;;;;5073395;28;20196;-83
2021/09/25 09:14:45;;;;;;;0.83;0.47;;;20.50;99.90;;;;;;5077781;28;20214;-84
2021/09/25 09:17:24;;;;;;;1.33;0.80;;;20.70;99.90;;;;;;5072070;28;20196;-85
2021/09/25 09:19:51;;;;;;;0.30;0.30;;;20.70;99.90;;;;;;5078256;28;20217;-85
2021/09/25 09:22:19;;;;;;;0.57;0.57;;;20.80;99.90;;;;;;5083001;28;20193;-84
2021/09/25 09:24:48;;;;;;;1.70;0.57;;;20.80;99.90;;;;;;5077452;28;20686;-84
2021/09/25 09:27:20;;;;;;;0.33;0.33;;;21.00;99.90;;;;;;5075099;28;20686;-85
2021/09/25 09:29:46;;;;;;;2.33;0.37;;;21.20;99.90;;;;;;5082337;28;20228;-84
2021/09/25 09:32:12;;;;;;;0.87;0.40;;;21.40;99.90;;;;;;5065429;28;20229;-85
2021/09/25 09:34:40;;;;;;;0.63;0.63;;;21.60;99.90;;;;;;5079511;28;20242;-85
2021/09/25 09:37:19;;;;;;;4.17;1.23;;;21.60;99.90;;;;;;5082085;28;20543;-85
2021/09/25 09:40:05;;;;;;;0.33;0.33;;;21.60;99.90;;;;;;5074771;28;20254;-84
2021/09/25 09:42:41;;;;;;;0.17;0.17;;;21.80;99.90;;;;;;5096621;28;20254;-86
2021/09/25 09:45:08;;;;;;;0.67;0.67;;;22.20;99.90;;;;;;5077451;28;20180;-85
2021/09/25 09:47:45;;;;;;;1.00;0.60;;;22.30;99.90;;;;;;5085908;28;20557;-85
2021/09/25 09:50:14;;;;;;;0.20;0.20;;;22.40;99.90;;;;;;5079249;28;20188;-85
2021/09/25 09:52:39;;;;;;;0.50;0.50;;;22.40;99.90;;;;;;5061535;28;20198;-86
2021/09/25 09:55:06;;;;;;;0.63;0.50;;;22.50;99.90;;;;;;5088505;28;20693;-85
2021/09/25 09:57:33;;;;;;;0.93;0.60;;;22.40;99.90;;;;;;5089990;28;20176;-84
2021/09/25 10:00:00;;;;;;;0.23;0.23;;;22.60;99.90;;;;;;5068272;28;20672;-85
2021/09/25 10:02:26;;;;;;;0.30;0.30;;;22.80;99.90;;;;;;5079978;28;20302;-85
2021/09/25 10:04:52;;;;;;;0.30;0.30;;;22.90;99.90;;;;;;5083378;28;20180;-85
2021/09/25 10:07:18;;;;;;;0.37;0.37;;;23.00;99.90;;;;;;5079035;28;20184;-83
2021/09/25 10:09:44;;;;;;;0.80;0.80;;;22.90;99.90;;;;;;5075828;28;22130;-84
2021/09/25 10:12:12;;;;;;;1.60;0.47;;;22.60;99.90;;;;;;5068509;28;20217;-84
2021/09/25 10:14:39;;;;;;;1.73;1.13;;;22.70;99.90;;;;;;5071517;28;20396;-84
2021/09/25 10:17:08;;;;;;;1.07;1.07;;;21.70;99.90;;;;;;5069834;28;20259;-83
2021/09/25 10:19:34;;;;;;;0.80;0.70;;;21.00;99.90;;;;;;5073252;28;20182;-83
2021/09/25 10:22:11;;;;;;;0.57;0.57;;;21.00;99.90;;;;;;5078488;28;20301;-83
2021/09/25 10:24:40;;;;;;;0.87;0.50;;;21.30;99.90;;;;;;5073988;28;20188;-83
2021/09/25 10:27:07;;;;;;;0.30;0.30;;;21.80;99.90;;;;;;5074410;28;20313;-83
2021/09/25 10:29:34;;;;;;;0.90;0.90;;;22.30;99.90;;;;;;5078893;28;20233;-83
2021/09/25 10:32:14;;;;;;;0.33;0.33;;;22.60;99.90;;;;;;5086654;28;20203;-83
2021/09/25 10:35:01;;;;;;;0.80;0.50;;;22.90;99.90;;;;;;5087752;28;20219;-83
2021/09/25 10:37:37;;;;;;;0.73;0.73;;;22.90;99.90;;;;;;5080016;28;20189;-83
2021/09/25 10:40:04;;;;;;;4.57;0.70;;;22.90;99.90;;;;;;5069384;28;20176;-83
2021/09/25 10:42:45;;;;;;;2.00;0.73;;;22.60;99.90;;;;;;5072121;28;20283;-83
2021/09/25 10:45:23;;;;;;;1.47;1.07;;;22.30;99.90;;;;;;5080560;28;20218;-83
2021/09/25 10:48:09;;;;;;;2.63;1.23;;;22.20;99.90;;;;;;5085051;28;20539;-83
2021/09/25 10:50:41;;;;;;;0.83;0.83;;;21.80;99.90;;;;;;5074667;28;20231;-83
2021/09/25 10:53:12;;;;;;;0.60;0.60;;;22.30;99.90;;;;;;5082958;28;20212;-83
2021/09/25 10:55:39;;;;;;;1.53;1.20;;;22.60;99.90;;;;;;5073472;28;20682;-83
2021/09/25 10:58:19;;;;;;;0.60;0.50;;;22.30;99.90;;;;;;5066383;28;20199;-84
2021/09/25 11:00:48;;;;;;;0.60;0.33;;;22.60;99.90;;;;;;5073120;28;20591;-84
2021/09/25 11:06:51;;;;;;;0.63;0.50;;;22.40;99.90;;;;;;5073420;28;20618;-84
2021/09/25 11:09:30;;;;;;;0.90;0.40;;;22.50;99.90;;;;;;5064009;28;20235;-84
2021/09/25 11:12:08;;;;;;;1.07;0.73;;;22.70;99.90;;;;;;5069742;28;20927;-84
2021/09/25 11:14:41;;;;;;;0.50;0.50;;;22.50;99.90;;;;;;5075185;28;20205;-84
2021/09/25 11:17:19;;;;;;;0.43;0.43;;;22.80;99.90;;;;;;5094559;28;20849;-84
2021/09/25 11:19:44;;;;;;;0.30;0.30;;;23.10;99.90;;;;;;5086927;28;20189;-85
2021/09/25 11:22:30;;;;;;;0.60;0.60;;;23.20;99.90;;;;;;5079825;28;20581;-84
2021/09/25 11:25:04;;;;;;;1.90;1.03;;;23.10;99.90;;;;;;5074939;28;20207;-84
2021/09/25 11:27:32;;;;;;;0.43;0.43;;;23.20;99.90;;;;;;5071901;28;20235;-83
2021/09/25 11:30:09;;;;;;;0.67;0.67;;;23.40;99.90;;;;;;5083049;28;20173;-83
2021/09/25 11:32:41;;;;;;;0.20;0.20;;;23.60;99.90;;;;;;5073214;28;20211;-83
2021/09/25 11:35:19;;;;;;;0.40;0.40;;;23.90;99.90;;;;;;5078285;28;20196;-83
2021/09/25 11:37:58;;;;;;;0.60;0.47;;;24.10;99.90;;;;;;5074056;28;20271;-83
2021/09/25 11:40:37;;;;;;;0.80;0.80;;;23.50;99.90;;;;;;5069909;28;20267;-83
2021/09/25 11:43:04;;;;;;;0.70;0.70;;;23.90;99.90;;;;;;5082703;28;20192;-82
2021/09/25 11:45:39;;;;;;;0.53;0.53;;;23.40;99.90;;;;;;5080316;28;20192;-83
2021/09/25 11:48:07;;;;;;;0.40;0.40;;;23.80;99.90;;;;;;5085675;28;20186;-83
2021/09/25 11:50:35;;;;;;;0.30;0.30;;;23.80;99.90;;;;;;5081348;28;20238;-83
2021/09/25 11:53:04;;;;;;;0.50;0.37;;;23.90;99.90;;;;;;5074221;28;20208;-83
2021/09/25 11:55:31;;;;;;;0.60;0.60;;;24.20;99.90;;;;;;5091038;28;20192;-83
2021/09/25 11:58:04;;;;;;;0.57;0.57;;;23.70;99.90;;;;;;5070636;28;20335;-83
2021/09/25 12:00:35;;;;;;;0.33;0.33;;;23.70;99.90;;;;;;5085209;28;20183;-84
2021/09/25 12:03:06;;;;;;;0.60;0.50;;;23.90;99.90;;;;;;5069006;28;20193;-82
2021/09/25 12:05:36;;;;;;;0.87;0.70;;;24.10;99.90;;;;;;5069502;28;20310;-83
2021/09/25 12:08:06;;;;;;;0.77;0.30;;;24.20;99.90;;;;;;5080523;28;20194;-82
2021/09/25 12:10:38;;;;;;;0.23;0.23;;;24.40;99.90;;;;;;5079538;28;20192;-83
2021/09/25 12:13:28;;;;;;;0.50;0.50;;;24.70;99.90;;;;;;5081300;28;20220;-83
2021/09/25 12:15:56;;;;;;;0.20;0.20;;;24.90;99.90;;;;;;5071854;28;20291;-84
2021/09/25 12:18:23;;;;;;;0.30;0.30;;;24.90;99.90;;;;;;5085826;28;20176;-84
2021/09/25 12:21:01;;;;;;;0.63;0.60;;;25.10;99.90;;;;;;5082006;28;20191;-84
2021/09/25 12:23:39;;;;;;;0.63;0.60;;;24.90;99.90;;;;;;5073846;28;20203;-84
2021/09/25 12:26:09;;;;;;;0.57;0.57;;;24.60;99.90;;;;;;5082172;28;20176;-84
2021/09/25 12:28:56;;;;;;;0.70;0.70;;;23.70;99.90;;;;;;5084652;28;20234;-83
2021/09/25 12:31:26;;;;;;;0.37;0.33;;;23.80;99.90;;;;;;5084434;28;20273;-85
2021/09/25 12:33:55;;;;;;;0.57;0.57;;;24.10;99.90;;;;;;5085181;28;20847;-84
2021/09/25 12:36:22;;;;;;;0.27;0.27;;;24.50;99.90;;;;;;5082774;28;20181;-85
2021/09/25 12:38:48;;;;;;;0.40;0.40;;;24.70;99.90;;;;;;5079989;28;20177;-84
2021/09/25 12:41:25;;;;;;;0.30;0.30;;;24.90;99.90;;;;;;5070483;28;20268;-85
2021/09/25 12:43:59;;;;;;;0.63;0.63;;;25.00;99.90;;;;;;5069828;28;20169;-85
2021/09/25 12:46:40;;;;;;;1.60;0.43;;;25.20;99.90;;;;;;5090724;28;20178;-83
2021/09/25 12:49:22;;;;;;;0.50;0.50;;;25.30;99.90;;;;;;5075334;28;20184;-84
2021/09/25 12:51:57;;;;;;;0.63;0.53;;;24.80;99.90;;;;;;5079252;28;20250;-84
2021/09/25 12:54:46;;;;;;;0.33;0.33;;;25.00;99.90;;;;;;5076993;28;20211;-84